KIRS/IRS METAR and TAF weather

Enter ICAO airport designator
Station Type Date Time Source
KIRS METAR 2019/10/23 02:59 UTC NOAA

KIRS 230259Z AUTO 26010G15KT 10SM SCT042 OVC060 10/03 A2979 RMK AO2 T00970026


Station Type Date Time Source
KIRS Decoded METAR 2019/10/23 02:59 UTC NOAA

Sturgis, Kirsch Municipal Airport, MI, United States (KIRS) 41-48-46N 085-26-21W
Oct 22, 2019 - 10:59 PM EDT / 2019.10.23 0259 UTC
Wind: from the W (260 degrees) at 12 MPH (10 KT) gusting to 17 MPH (15 KT):0
Visibility: 10 mile(s):0
Sky conditions: overcast
Temperature: 49.5 F (9.7 C)
Dew Point: 36.7 F (2.6 C)
Relative Humidity: 61%
Pressure (altimeter): 29.79 in. Hg (1008 hPa)
ob: KIRS 230259Z AUTO 26010G15KT 10SM SCT042 OVC060 10/03 A2979 RMK AO2 T00970026
cycle: 3

Station Type Date Time Source
KIRS TAF UTC NOAA

Error!

Example: see airport list